Time,TemperatureF,DewpointF,PressureIn,WindDirection,WindDirectionDegrees,WindSpeedMPH,WindSpeedGustMPH,Humidity,HourlyPrecipIn,Conditions,Clouds,dailyrainin,SolarRadiationWatts/m^2,SoftwareType,DateUTC
2013-03-08 00:01:00,23.0,16.0,-100.00,NNE,19,1.0,6.0,73,0.00,,,0.06,0.000000,,2013-03-08 07:01:00,
2013-03-08 00:11:00,23.0,16.0,-100.00,NNE,19,1.0,6.0,73,0.00,,,0.06,0.000000,,2013-03-08 07:11:00,
2013-03-08 00:32:00,24.0,17.0,-100.00,ESE,111,2.0,4.0,75,0.00,,,0.06,0.000000,,2013-03-08 07:32:00,
2013-03-08 00:42:00,24.0,17.0,-100.00,ESE,111,2.0,4.0,75,0.00,,,0.06,0.000000,,2013-03-08 07:42:00,
2013-03-08 00:52:00,24.0,17.0,-100.00,ESE,111,2.0,4.0,75,0.00,,,0.06,0.000000,,2013-03-08 07:52:00,
2013-03-08 01:01:00,24.0,17.0,-100.00,ESE,111,2.0,4.0,75,0.00,,,0.06,0.000000,,2013-03-08 08:01:00,
2013-03-08 01:11:00,24.0,17.0,-100.00,ESE,111,2.0,4.0,75,0.00,,,0.06,0.000000,,2013-03-08 08:11:00,
2013-03-08 01:42:00,21.0,16.0,-100.00,East,91,3.0,5.0,79,0.00,,,0.06,0.000000,,2013-03-08 08:42:00,
2013-03-08 01:52:00,21.0,16.0,-100.00,East,91,3.0,5.0,79,0.00,,,0.06,0.000000,,2013-03-08 08:52:00,
2013-03-08 02:02:00,21.0,16.0,-100.00,East,91,3.0,5.0,79,0.00,,,0.06,0.000000,,2013-03-08 09:02:00,
2013-03-08 02:11:00,21.0,16.0,-100.00,East,91,3.0,5.0,79,0.00,,,0.06,0.000000,,2013-03-08 09:11:00,
2013-03-08 02:32:00,19.0,14.0,-100.00,ENE,65,2.0,4.0,80,0.00,,,0.06,0.000000,,2013-03-08 09:32:00,
2013-03-08 02:42:00,19.0,14.0,-100.00,ENE,65,2.0,4.0,80,0.00,,,0.06,0.000000,,2013-03-08 09:42:00,
2013-03-08 02:52:00,19.0,14.0,-100.00,ENE,65,2.0,4.0,80,0.00,,,0.06,0.000000,,2013-03-08 09:52:00,
2013-03-08 03:01:00,19.0,14.0,-100.00,ENE,65,2.0,4.0,80,0.00,,,0.06,0.000000,,2013-03-08 10:01:00,
2013-03-08 03:11:00,19.0,14.0,-100.00,ENE,65,2.0,4.0,80,0.00,,,0.06,0.000000,,2013-03-08 10:11:00,
2013-03-08 03:42:00,17.0,12.0,-100.00,NW,326,2.0,5.0,81,0.00,,,0.06,0.000000,,2013-03-08 10:42:00,
2013-03-08 03:52:00,17.0,12.0,-100.00,NW,326,2.0,5.0,81,0.00,,,0.06,0.000000,,2013-03-08 10:52:00,
2013-03-08 04:01:00,17.0,12.0,-100.00,NW,326,2.0,5.0,81,0.00,,,0.06,0.000000,,2013-03-08 11:01:00,
2013-03-08 04:11:00,17.0,12.0,-100.00,NW,326,2.0,5.0,81,0.00,,,0.06,0.000000,,2013-03-08 11:11:00,
2013-03-08 04:32:00,16.0,11.0,-100.00,SE,124,3.0,6.0,82,0.00,,,0.06,0.000000,,2013-03-08 11:32:00,
2013-03-08 04:42:00,16.0,11.0,-100.00,SE,124,3.0,6.0,82,0.00,,,0.06,0.000000,,2013-03-08 11:42:00,
2013-03-08 04:52:00,16.0,11.0,-100.00,SE,124,3.0,6.0,82,0.00,,,0.06,0.000000,,2013-03-08 11:52:00,
2013-03-08 05:01:00,16.0,11.0,-100.00,SE,124,3.0,6.0,82,0.00,,,0.06,0.000000,,2013-03-08 12:01:00,
2013-03-08 05:11:00,16.0,11.0,-100.00,SE,124,3.0,6.0,82,0.00,,,0.06,0.000000,,2013-03-08 12:11:00,
2013-03-08 05:32:00,14.0,9.0,-100.00,NNW,346,3.0,4.0,81,0.00,,,0.06,0.000000,,2013-03-08 12:32:00,
2013-03-08 05:43:00,14.0,9.0,-100.00,NNW,346,3.0,4.0,81,0.00,,,0.06,0.000000,,2013-03-08 12:43:00,
2013-03-08 05:52:00,14.0,9.0,-100.00,NNW,346,3.0,4.0,81,0.00,,,0.06,0.000000,,2013-03-08 12:52:00,
2013-03-08 06:01:00,14.0,9.0,-100.00,NNW,346,3.0,4.0,81,0.00,,,0.06,0.000000,,2013-03-08 13:01:00,
2013-03-08 06:11:00,14.0,9.0,-100.00,NNW,346,3.0,4.0,81,0.00,,,0.06,0.000000,,2013-03-08 13:11:00,
2013-03-08 06:42:00,14.0,10.0,-100.00,NE,50,1.0,6.0,85,0.00,,,0.06,0.000000,,2013-03-08 13:42:00,
2013-03-08 06:52:00,14.0,10.0,-100.00,NE,50,1.0,6.0,85,0.00,,,0.06,0.000000,,2013-03-08 13:52:00,
2013-03-08 07:02:00,14.0,10.0,-100.00,NE,50,1.0,6.0,85,0.00,,,0.06,0.000000,,2013-03-08 14:02:00,
2013-03-08 07:11:00,14.0,10.0,-100.00,NE,50,1.0,6.0,85,0.00,,,0.06,0.000000,,2013-03-08 14:11:00,
2013-03-08 07:32:00,11.0,6.0,-100.00,SSE,155,3.0,4.0,81,0.00,,,0.06,2.000000,,2013-03-08 14:32:00,
2013-03-08 07:42:00,11.0,6.0,-100.00,SSE,155,3.0,4.0,81,0.00,,,0.06,2.000000,,2013-03-08 14:42:00,
2013-03-08 07:52:00,11.0,6.0,-100.00,SSE,155,3.0,4.0,81,0.00,,,0.06,2.000000,,2013-03-08 14:52:00,
2013-03-08 08:02:00,11.0,6.0,-100.00,SSE,155,3.0,4.0,81,0.00,,,0.06,2.000000,,2013-03-08 15:02:00,
2013-03-08 08:11:00,11.0,6.0,-100.00,SSE,155,3.0,4.0,81,0.00,,,0.06,2.000000,,2013-03-08 15:11:00,
2013-03-08 08:32:00,13.0,9.0,-100.00,NNW,341,1.0,5.0,84,0.00,,,-99.99,25.000000,,2013-03-08 15:32:00,
2013-03-08 08:43:00,13.0,9.0,-100.00,NNW,341,1.0,5.0,84,0.00,,,-99.99,25.000000,,2013-03-08 15:43:00,
2013-03-08 08:53:00,13.0,9.0,-100.00,NNW,341,1.0,5.0,84,0.00,,,-99.99,25.000000,,2013-03-08 15:53:00,
2013-03-08 09:01:00,13.0,9.0,-100.00,NNW,341,1.0,5.0,84,0.00,,,-99.99,25.000000,,2013-03-08 16:01:00,
2013-03-08 09:11:00,13.0,9.0,-100.00,NNW,341,1.0,5.0,84,0.00,,,-99.99,25.000000,,2013-03-08 16:11:00,
2013-03-08 09:32:00,22.0,13.0,-100.00,SSW,212,2.0,4.0,68,0.00,,,0.02,338.000000,,2013-03-08 16:32:00,
2013-03-08 09:42:00,22.0,13.0,-100.00,SSW,212,2.0,4.0,68,0.00,,,0.02,338.000000,,2013-03-08 16:42:00,
2013-03-08 09:52:00,22.0,13.0,-100.00,SSW,212,2.0,4.0,68,0.00,,,0.02,338.000000,,2013-03-08 16:52:00,
2013-03-08 10:02:00,22.0,13.0,-100.00,SSW,212,2.0,4.0,68,0.00,,,0.02,338.000000,,2013-03-08 17:02:00,
2013-03-08 10:11:00,22.0,13.0,-100.00,SSW,212,2.0,4.0,68,0.00,,,0.02,338.000000,,2013-03-08 17:11:00,
2013-03-08 10:32:00,26.0,14.0,-100.00,WSW,242,2.0,5.0,61,0.00,,,0.00,472.000000,,2013-03-08 17:32:00,
2013-03-08 10:42:00,26.0,14.0,-100.00,WSW,242,2.0,5.0,61,0.00,,,0.00,472.000000,,2013-03-08 17:42:00,
2013-03-08 10:52:00,26.0,14.0,-100.00,WSW,242,2.0,5.0,61,0.00,,,0.00,472.000000,,2013-03-08 17:52:00,
2013-03-08 11:01:00,26.0,14.0,-100.00,WSW,242,2.0,5.0,61,0.00,,,0.00,472.000000,,2013-03-08 18:01:00,
2013-03-08 11:11:00,26.0,14.0,-100.00,WSW,242,2.0,5.0,61,0.00,,,0.00,472.000000,,2013-03-08 18:11:00,
2013-03-08 11:32:00,28.0,16.0,-100.00,SW,226,2.0,4.0,60,0.00,,,0.00,548.000000,,2013-03-08 18:32:00,
2013-03-08 11:42:00,28.0,16.0,-100.00,SW,226,2.0,4.0,60,0.00,,,0.00,548.000000,,2013-03-08 18:42:00,
2013-03-08 11:52:00,28.0,16.0,-100.00,SW,226,2.0,4.0,60,0.00,,,0.00,548.000000,,2013-03-08 18:52:00,
2013-03-08 12:01:00,28.0,16.0,-100.00,SW,226,2.0,4.0,60,0.00,,,0.00,548.000000,,2013-03-08 19:01:00,
2013-03-08 12:11:00,28.0,16.0,-100.00,SW,226,2.0,4.0,60,0.00,,,0.00,548.000000,,2013-03-08 19:11:00,
2013-03-08 12:42:00,36.0,18.0,-100.00,WSW,250,3.0,4.0,48,0.00,,,0.00,762.000000,,2013-03-08 19:42:00,
2013-03-08 12:52:00,36.0,18.0,-100.00,WSW,250,3.0,4.0,48,0.00,,,0.00,762.000000,,2013-03-08 19:52:00,
2013-03-08 13:01:00,36.0,18.0,-100.00,WSW,250,3.0,4.0,48,0.00,,,0.00,762.000000,,2013-03-08 20:01:00,
2013-03-08 13:11:00,36.0,18.0,-100.00,WSW,250,3.0,4.0,48,0.00,,,0.00,762.000000,,2013-03-08 20:11:00,
2013-03-08 13:42:00,38.0,21.0,-100.00,SSW,199,3.0,5.0,50,0.00,,,0.00,787.000000,,2013-03-08 20:42:00,
2013-03-08 13:53:00,38.0,21.0,-100.00,SSW,199,3.0,5.0,50,0.00,,,0.00,787.000000,,2013-03-08 20:53:00,
2013-03-08 14:01:00,38.0,21.0,-100.00,SSW,199,3.0,5.0,50,0.00,,,0.00,787.000000,,2013-03-08 21:01:00,
2013-03-08 14:11:00,38.0,21.0,-100.00,SSW,199,3.0,5.0,50,0.00,,,0.00,787.000000,,2013-03-08 21:11:00,
2013-03-08 14:42:00,44.0,23.0,-100.00,SSW,213,2.0,5.0,43,0.00,,,0.00,779.000000,,2013-03-08 21:42:00,
2013-03-08 14:52:00,44.0,23.0,-100.00,SSW,213,2.0,5.0,43,0.00,,,0.00,779.000000,,2013-03-08 21:52:00,
2013-03-08 15:01:00,44.0,23.0,-100.00,SSW,213,2.0,5.0,43,0.00,,,0.00,779.000000,,2013-03-08 22:01:00,
2013-03-08 15:11:00,44.0,23.0,-100.00,SSW,213,2.0,5.0,43,0.00,,,0.00,779.000000,,2013-03-08 22:11:00,
2013-03-08 15:42:00,42.0,23.0,-100.00,South,189,5.0,7.0,46,0.00,,,0.00,673.000000,,2013-03-08 22:42:00,
2013-03-08 15:52:00,42.0,23.0,-100.00,South,189,5.0,7.0,46,0.00,,,0.00,673.000000,,2013-03-08 22:52:00,
2013-03-08 16:01:00,42.0,23.0,-100.00,South,189,5.0,7.0,46,0.00,,,0.00,673.000000,,2013-03-08 23:01:00,
2013-03-08 16:42:00,42.0,18.0,-100.00,NNW,340,9.0,14.0,38,0.00,,,0.00,283.000000,,2013-03-08 23:42:00,
2013-03-08 16:52:00,42.0,18.0,-100.00,NNW,340,9.0,14.0,38,0.00,,,0.00,283.000000,,2013-03-08 23:52:00,
2013-03-08 17:01:00,42.0,18.0,-100.00,NNW,340,9.0,14.0,38,0.00,,,0.00,283.000000,,2013-03-09 00:01:00,
2013-03-08 17:11:00,42.0,18.0,-100.00,NNW,340,9.0,14.0,38,0.00,,,0.00,283.000000,,2013-03-09 00:11:00,
2013-03-08 17:42:00,42.0,14.0,-100.00,North,359,6.0,13.0,32,0.00,,,0.00,150.000000,,2013-03-09 00:42:00,
2013-03-08 17:52:00,42.0,14.0,-100.00,North,359,6.0,13.0,32,0.00,,,0.00,150.000000,,2013-03-09 00:52:00,
2013-03-08 18:01:00,42.0,14.0,-100.00,North,359,6.0,13.0,32,0.00,,,0.00,150.000000,,2013-03-09 01:01:00,
2013-03-08 18:12:00,42.0,14.0,-100.00,North,359,6.0,13.0,32,0.00,,,0.00,150.000000,,2013-03-09 01:12:00,
2013-03-08 20:42:00,28.0,11.0,-100.00,ESE,119,5.0,6.0,49,-99.99,,,0.00,0.000000,,2013-03-09 03:42:00,
2013-03-08 20:52:00,28.0,11.0,-100.00,ESE,119,5.0,6.0,49,-99.99,,,0.00,0.000000,,2013-03-09 03:52:00,
2013-03-08 21:01:00,28.0,11.0,-100.00,ESE,119,5.0,6.0,49,-99.99,,,0.00,0.000000,,2013-03-09 04:01:00,
2013-03-08 21:11:00,28.0,11.0,-100.00,ESE,119,5.0,6.0,49,-99.99,,,0.00,0.000000,,2013-03-09 04:11:00,
2013-03-08 21:32:00,26.0,11.0,-100.00,ESE,113,5.0,7.0,52,0.00,,,0.00,0.000000,,2013-03-09 04:32:00,
2013-03-08 21:42:00,26.0,11.0,-100.00,ESE,113,5.0,7.0,52,0.00,,,0.00,0.000000,,2013-03-09 04:42:00,
2013-03-08 21:52:00,26.0,11.0,-100.00,ESE,113,5.0,7.0,52,0.00,,,0.00,0.000000,,2013-03-09 04:52:00,
2013-03-08 22:01:00,26.0,11.0,-100.00,ESE,113,5.0,7.0,52,0.00,,,0.00,0.000000,,2013-03-09 05:01:00,
2013-03-08 22:11:00,26.0,11.0,-100.00,ESE,113,5.0,7.0,52,0.00,,,0.00,0.000000,,2013-03-09 05:11:00,
2013-03-08 22:32:00,22.0,11.0,-100.00,East,99,2.0,6.0,61,0.00,,,0.00,0.000000,,2013-03-09 05:32:00,
2013-03-08 22:43:00,22.0,11.0,-100.00,East,99,2.0,6.0,61,0.00,,,0.00,0.000000,,2013-03-09 05:43:00,
2013-03-08 22:53:00,22.0,11.0,-100.00,East,99,2.0,6.0,61,0.00,,,0.00,0.000000,,2013-03-09 05:53:00,
2013-03-08 23:01:00,22.0,11.0,-100.00,East,99,2.0,6.0,61,0.00,,,0.00,0.000000,,2013-03-09 06:01:00,
2013-03-08 23:11:00,22.0,11.0,-100.00,East,99,2.0,6.0,61,0.00,,,0.00,0.000000,,2013-03-09 06:11:00,
2013-03-08 23:32:00,22.0,12.0,-100.00,East,94,2.0,5.0,66,0.00,,,0.00,0.000000,,2013-03-09 06:32:00,
2013-03-08 23:42:00,22.0,12.0,-100.00,East,94,2.0,5.0,66,0.00,,,0.00,0.000000,,2013-03-09 06:42:00,
2013-03-08 23:52:00,22.0,12.0,-100.00,East,94,2.0,5.0,66,0.00,,,0.00,0.000000,,2013-03-09 06:52:00,